Pagina principale
METAR-TAF:

METAR-TAF

Aeroporti :

Lione, Francia

latitudine: 45-43N, longitudine: 004-57E, altezza: 200 m

Osservazione

Il bollettino è stato emesso 12 minuti fa, alle 17:30 UTC
Vento 8 kt da nord, variando fra nord/nord-ovest e nord-est
Temperature 25°C
Umidità 39%
Pressione 1013 hPa
Visibilità 10 km o più
nessuna nube inferiore a 1500 m e nessun cumulonembo

METAR: LFLY 311730Z AUTO 01008KT 340V040 CAVOK 25/10 Q1013

Ora: 19:42 (17:42 UTC)


TAF: mancante

Osservazioni e previsioni meteorologiche di più di 4000 aeroporti (messaggi METAR e TAF).

Le stazioni disponibili sono rappresentate dai dischi gialli e rossi sulla carta.

Puntare il mouse per vedere il nome della stazione.

Clicca sopra per visualizzare le osservazioni e previsioni meteorologiche.

Per cambiare la mappa : fare clic sui pulsanti verdi con una croce nera per ingrandire, il pulsante verde con un trattino per diminuire, o sulla freccia verde per le mappe adiacenti.


METAR-TAF: